sensor_id;sensor_type;location;lat;lon;timestamp;pressure;altitude;pressure_sealevel;temperature;humidity
71956;BME280;59829;50.562;6.258;2023-12-04T00:02:22;95405.16;;;1.39;78.12
71956;BME280;59829;50.562;6.258;2023-12-04T00:12:22;95386.28;;;1.46;78.52
71956;BME280;59829;50.562;6.258;2023-12-04T00:22:22;95355.19;;;1.46;78.38
71956;BME280;59829;50.562;6.258;2023-12-04T00:32:24;95365.81;;;1.35;77.88
71956;BME280;59829;50.562;6.258;2023-12-04T00:42:24;95366.78;;;1.33;77.77
71956;BME280;59829;50.562;6.258;2023-12-04T00:52:24;95345.81;;;1.15;77.70
71956;BME280;59829;50.562;6.258;2023-12-04T01:02:24;95325.97;;;1.09;77.70
71956;BME280;59829;50.562;6.258;2023-12-04T01:12:25;95314.00;;;1.12;77.64
71956;BME280;59829;50.562;6.258;2023-12-04T01:22:26;95314.50;;;1.19;77.43
71956;BME280;59829;50.562;6.258;2023-12-04T01:32:26;95303.66;;;1.17;76.98
71956;BME280;59829;50.562;6.258;2023-12-04T01:42:27;95293.50;;;1.18;76.71
71956;BME280;59829;50.562;6.258;2023-12-04T01:52:27;95287.34;;;1.24;76.62
71956;BME280;59829;50.562;6.258;2023-12-04T02:02:28;95275.47;;;1.26;76.45
71956;BME280;59829;50.562;6.258;2023-12-04T02:12:29;95268.47;;;1.31;76.05
71956;BME280;59829;50.562;6.258;2023-12-04T02:22:30;95268.28;;;1.34;75.65
71956;BME280;59829;50.562;6.258;2023-12-04T02:32:31;95260.81;;;1.33;75.23
71956;BME280;59829;50.562;6.258;2023-12-04T02:42:33;95247.13;;;1.37;74.97
71956;BME280;59829;50.562;6.258;2023-12-04T02:52:34;95240.06;;;1.43;74.64
71956;BME280;59829;50.562;6.258;2023-12-04T03:02:34;95217.66;;;1.37;74.26
71956;BME280;59829;50.562;6.258;2023-12-04T03:12:34;95219.63;;;1.32;73.67
71956;BME280;59829;50.562;6.258;2023-12-04T03:22:36;95209.44;;;1.34;73.31
71956;BME280;59829;50.562;6.258;2023-12-04T03:32:36;95194.22;;;1.35;73.08
71956;BME280;59829;50.562;6.258;2023-12-04T03:42:37;95185.63;;;1.39;72.64
71956;BME280;59829;50.562;6.258;2023-12-04T03:52:37;95157.78;;;1.41;72.24
71956;BME280;59829;50.562;6.258;2023-12-04T04:02:39;95163.78;;;1.38;71.68
71956;BME280;59829;50.562;6.258;2023-12-04T04:12:39;95150.19;;;1.41;71.43
71956;BME280;59829;50.562;6.258;2023-12-04T04:22:39;95137.41;;;1.44;71.18
71956;BME280;59829;50.562;6.258;2023-12-04T04:32:41;95140.34;;;1.36;70.60
71956;BME280;59829;50.562;6.258;2023-12-04T04:42:41;95122.75;;;1.35;70.08
71956;BME280;59829;50.562;6.258;2023-12-04T04:52:41;95103.88;;;1.42;69.98
71956;BME280;59829;50.562;6.258;2023-12-04T05:02:41;95071.88;;;1.42;69.54
71956;BME280;59829;50.562;6.258;2023-12-04T05:12:42;95049.16;;;1.42;69.36
71956;BME280;59829;50.562;6.258;2023-12-04T05:22:42;95053.78;;;1.50;69.14
71956;BME280;59829;50.562;6.258;2023-12-04T05:32:42;95045.63;;;1.61;68.69
71956;BME280;59829;50.562;6.258;2023-12-04T05:42:43;95038.66;;;1.64;68.19
71956;BME280;59829;50.562;6.258;2023-12-04T05:52:43;95017.31;;;1.70;67.89
71956;BME280;59829;50.562;6.258;2023-12-04T06:02:43;95020.03;;;1.81;67.43
71956;BME280;59829;50.562;6.258;2023-12-04T06:12:44;95001.81;;;1.90;67.17
71956;BME280;59829;50.562;6.258;2023-12-04T06:22:44;94999.13;;;1.93;66.58
71956;BME280;59829;50.562;6.258;2023-12-04T06:32:45;94993.06;;;1.96;65.81
71956;BME280;59829;50.562;6.258;2023-12-04T06:42:45;94994.59;;;1.98;65.37
71956;BME280;59829;50.562;6.258;2023-12-04T06:52:46;94982.22;;;2.08;65.05
71956;BME280;59829;50.562;6.258;2023-12-04T07:02:46;94971.16;;;2.10;64.68
71956;BME280;59829;50.562;6.258;2023-12-04T07:12:46;94965.72;;;2.17;64.41
71956;BME280;59829;50.562;6.258;2023-12-04T07:22:47;94961.91;;;2.24;64.03
71956;BME280;59829;50.562;6.258;2023-12-04T07:32:47;94961.75;;;2.27;63.87
71956;BME280;59829;50.562;6.258;2023-12-04T07:42:47;94965.00;;;2.29;63.58
71956;BME280;59829;50.562;6.258;2023-12-04T07:52:47;94942.78;;;2.34;63.56
71956;BME280;59829;50.562;6.258;2023-12-04T08:02:49;94931.47;;;2.39;63.70
71956;BME280;59829;50.562;6.258;2023-12-04T08:12:49;94926.66;;;2.49;63.87
71956;BME280;59829;50.562;6.258;2023-12-04T08:22:49;94927.91;;;2.56;63.65
71956;BME280;59829;50.562;6.258;2023-12-04T08:32:49;94902.41;;;2.59;64.07
71956;BME280;59829;50.562;6.258;2023-12-04T08:42:50;94893.03;;;2.61;64.21
71956;BME280;59829;50.562;6.258;2023-12-04T08:52:50;94867.03;;;2.59;64.41
71956;BME280;59829;50.562;6.258;2023-12-04T09:02:50;94836.88;;;2.56;64.93
71956;BME280;59829;50.562;6.258;2023-12-04T09:12:51;94835.06;;;2.58;65.28
71956;BME280;59829;50.562;6.258;2023-12-04T09:22:51;94825.75;;;2.59;65.68
71956;BME280;59829;50.562;6.258;2023-12-04T09:32:51;94819.72;;;2.61;66.35
71956;BME280;59829;50.562;6.258;2023-12-04T09:42:52;94824.38;;;2.67;66.98
71956;BME280;59829;50.562;6.258;2023-12-04T09:52:54;94811.72;;;2.67;67.53
71956;BME280;59829;50.562;6.258;2023-12-04T10:02:55;94788.97;;;2.67;68.54
71956;BME280;59829;50.562;6.258;2023-12-04T10:12:56;94782.91;;;2.70;69.45
71956;BME280;59829;50.562;6.258;2023-12-04T10:22:58;94771.19;;;2.69;70.38
71956;BME280;59829;50.562;6.258;2023-12-04T10:33:02;94743.25;;;2.70;71.32
71956;BME280;59829;50.562;6.258;2023-12-04T10:53:11;94674.66;;;2.75;72.88
71956;BME280;59829;50.562;6.258;2023-12-04T11:03:44;94639.91;;;2.79;73.53
71956;BME280;59829;50.562;6.258;2023-12-04T11:13:49;94620.47;;;2.79;74.56
71956;BME280;59829;50.562;6.258;2023-12-04T11:23:50;94600.50;;;2.87;75.19
71956;BME280;59829;50.562;6.258;2023-12-04T11:33:50;94565.47;;;2.94;76.00
71956;BME280;59829;50.562;6.258;2023-12-04T11:43:52;94559.69;;;3.05;76.74
71956;BME280;59829;50.562;6.258;2023-12-04T11:53:52;94536.63;;;3.20;77.51
71956;BME280;59829;50.562;6.258;2023-12-04T12:03:53;94520.59;;;3.32;78.29
71956;BME280;59829;50.562;6.258;2023-12-04T12:13:53;94514.25;;;3.38;78.75
71956;BME280;59829;50.562;6.258;2023-12-04T12:23:54;94495.75;;;3.38;79.48
71956;BME280;59829;50.562;6.258;2023-12-04T12:33:56;94477.25;;;3.48;79.95
71956;BME280;59829;50.562;6.258;2023-12-04T12:43:57;94466.09;;;3.51;80.63
71956;BME280;59829;50.562;6.258;2023-12-04T12:53:57;94458.50;;;3.51;81.02
71956;BME280;59829;50.562;6.258;2023-12-04T13:04:00;94451.13;;;3.48;81.52
71956;BME280;59829;50.562;6.258;2023-12-04T13:14:01;94444.22;;;3.50;81.84
71956;BME280;59829;50.562;6.258;2023-12-04T13:24:01;94417.31;;;3.49;82.33
71956;BME280;59829;50.562;6.258;2023-12-04T13:34:04;94399.47;;;3.50;82.64
71956;BME280;59829;50.562;6.258;2023-12-04T13:44:06;94391.50;;;3.44;83.16
71956;BME280;59829;50.562;6.258;2023-12-04T13:54:07;94383.66;;;3.47;83.71
71956;BME280;59829;50.562;6.258;2023-12-04T14:04:21;94369.09;;;3.50;84.14
71956;BME280;59829;50.562;6.258;2023-12-04T14:14:25;94349.63;;;3.51;84.44
71956;BME280;59829;50.562;6.258;2023-12-04T14:24:25;94350.44;;;3.51;84.82
71956;BME280;59829;50.562;6.258;2023-12-04T14:34:26;94338.59;;;3.52;85.38
71956;BME280;59829;50.562;6.258;2023-12-04T14:44:26;94331.69;;;3.54;85.85
71956;BME280;59829;50.562;6.258;2023-12-04T14:54:26;94325.13;;;3.51;86.50
71956;BME280;59829;50.562;6.258;2023-12-04T15:04:45;94324.09;;;3.54;86.86
71956;BME280;59829;50.562;6.258;2023-12-04T15:15:04;94315.31;;;3.58;87.45
71956;BME280;59829;50.562;6.258;2023-12-04T15:25:23;94313.47;;;3.60;87.68
71956;BME280;59829;50.562;6.258;2023-12-04T15:35:23;94306.94;;;3.57;88.15
71956;BME280;59829;50.562;6.258;2023-12-04T15:45:24;94288.41;;;3.57;88.53
71956;BME280;59829;50.562;6.258;2023-12-04T15:55:24;94293.22;;;3.60;89.25
71956;BME280;59829;50.562;6.258;2023-12-04T16:05:26;94272.50;;;3.66;89.62
71956;BME280;59829;50.562;6.258;2023-12-04T16:15:26;94263.06;;;3.68;90.21
71956;BME280;59829;50.562;6.258;2023-12-04T16:25:26;94250.41;;;3.68;90.56
71956;BME280;59829;50.562;6.258;2023-12-04T16:35:27;94241.66;;;3.72;91.06
71956;BME280;59829;50.562;6.258;2023-12-04T16:45:29;94234.47;;;3.77;91.68
71956;BME280;59829;50.562;6.258;2023-12-04T16:55:29;94222.03;;;3.85;91.97
71956;BME280;59829;50.562;6.258;2023-12-04T17:05:29;94198.88;;;3.90;92.64
71956;BME280;59829;50.562;6.258;2023-12-04T17:15:30;94201.16;;;3.93;92.85
71956;BME280;59829;50.562;6.258;2023-12-04T17:25:31;94192.25;;;3.99;93.42
71956;BME280;59829;50.562;6.258;2023-12-04T17:35:33;94194.56;;;4.02;94.01
71956;BME280;59829;50.562;6.258;2023-12-04T17:45:33;94194.44;;;4.03;94.41
71956;BME280;59829;50.562;6.258;2023-12-04T17:55:33;94168.59;;;4.09;95.10
71956;BME280;59829;50.562;6.258;2023-12-04T18:05:34;94162.63;;;4.10;95.47
71956;BME280;59829;50.562;6.258;2023-12-04T18:15:34;94150.88;;;4.09;96.09
71956;BME280;59829;50.562;6.258;2023-12-04T18:25:35;94130.47;;;4.11;96.77
71956;BME280;59829;50.562;6.258;2023-12-04T18:35:36;94114.78;;;4.17;97.28
71956;BME280;59829;50.562;6.258;2023-12-04T18:45:36;94114.53;;;4.20;97.90
71956;BME280;59829;50.562;6.258;2023-12-04T18:55:37;94114.16;;;4.24;98.43
71956;BME280;59829;50.562;6.258;2023-12-04T19:05:38;94102.03;;;4.28;98.87
71956;BME280;59829;50.562;6.258;2023-12-04T19:15:38;94101.78;;;4.31;99.45
71956;BME280;59829;50.562;6.258;2023-12-04T19:25:38;94087.00;;;4.36;99.76
71956;BME280;59829;50.562;6.258;2023-12-04T19:35:40;94081.81;;;4.38;100.00
71956;BME280;59829;50.562;6.258;2023-12-04T19:45:40;94070.34;;;4.43;100.00
71956;BME280;59829;50.562;6.258;2023-12-04T19:55:41;94073.81;;;4.42;100.00
71956;BME280;59829;50.562;6.258;2023-12-04T20:05:44;94064.34;;;4.44;100.00
71956;BME280;59829;50.562;6.258;2023-12-04T20:15:44;94053.28;;;4.45;100.00
71956;BME280;59829;50.562;6.258;2023-12-04T20:25:45;94050.06;;;4.43;100.00
71956;BME280;59829;50.562;6.258;2023-12-04T20:35:48;94052.34;;;4.46;100.00
71956;BME280;59829;50.562;6.258;2023-12-04T20:45:49;94048.75;;;4.49;100.00
71956;BME280;59829;50.562;6.258;2023-12-04T20:55:50;94044.25;;;4.52;100.00
71956;BME280;59829;50.562;6.258;2023-12-04T21:05:50;94036.38;;;4.56;100.00
71956;BME280;59829;50.562;6.258;2023-12-04T21:15:50;94027.03;;;4.56;100.00
71956;BME280;59829;50.562;6.258;2023-12-04T21:25:51;94022.63;;;4.58;100.00
71956;BME280;59829;50.562;6.258;2023-12-04T21:35:52;94006.06;;;4.64;100.00
71956;BME280;59829;50.562;6.258;2023-12-04T21:45:52;94013.00;;;4.62;100.00
71956;BME280;59829;50.562;6.258;2023-12-04T21:55:54;93995.00;;;4.65;100.00
71956;BME280;59829;50.562;6.258;2023-12-04T22:05:54;93992.19;;;4.68;100.00
71956;BME280;59829;50.562;6.258;2023-12-04T22:15:54;93989.41;;;4.71;100.00
71956;BME280;59829;50.562;6.258;2023-12-04T22:25:54;93967.41;;;4.71;100.00
71956;BME280;59829;50.562;6.258;2023-12-04T22:35:55;93970.47;;;4.75;100.00
71956;BME280;59829;50.562;6.258;2023-12-04T22:45:55;93966.06;;;4.77;100.00
71956;BME280;59829;50.562;6.258;2023-12-04T22:55:57;93970.88;;;4.80;100.00
71956;BME280;59829;50.562;6.258;2023-12-04T23:05:57;93962.97;;;4.83;100.00
71956;BME280;59829;50.562;6.258;2023-12-04T23:15:58;93960.44;;;4.83;100.00
71956;BME280;59829;50.562;6.258;2023-12-04T23:25:58;93945.66;;;4.88;100.00
71956;BME280;59829;50.562;6.258;2023-12-04T23:36:00;93942.84;;;4.91;100.00
71956;BME280;59829;50.562;6.258;2023-12-04T23:46:01;93938.56;;;4.92;100.00
71956;BME280;59829;50.562;6.258;2023-12-04T23:56:01;93932.41;;;4.94;100.00
